sensor_id;sensor_type;location;lat;lon;timestamp;P1;durP1;ratioP1;P2;durP2;ratioP2
75584;SDS011;64162;53.508;10.476;2022-10-16T00:00:20;24.73;;;8.80;;
75584;SDS011;64162;53.508;10.476;2022-10-16T00:02:46;22.20;;;7.97;;
75584;SDS011;64162;53.508;10.476;2022-10-16T00:05:11;23.80;;;9.27;;
75584;SDS011;64162;53.508;10.476;2022-10-16T00:07:36;21.15;;;8.85;;
75584;SDS011;64162;53.508;10.476;2022-10-16T00:10:01;22.13;;;7.80;;
75584;SDS011;64162;53.508;10.476;2022-10-16T00:12:27;22.73;;;8.00;;
75584;SDS011;64162;53.508;10.476;2022-10-16T00:14:52;24.93;;;8.87;;
75584;SDS011;64162;53.508;10.476;2022-10-16T00:17:18;25.17;;;9.38;;
75584;SDS011;64162;53.508;10.476;2022-10-16T00:19:43;23.23;;;9.60;;
75584;SDS011;64162;53.508;10.476;2022-10-16T00:22:08;25.40;;;8.65;;
75584;SDS011;64162;53.508;10.476;2022-10-16T00:24:33;26.17;;;8.48;;
75584;SDS011;64162;53.508;10.476;2022-10-16T00:26:59;22.27;;;8.10;;
75584;SDS011;64162;53.508;10.476;2022-10-16T00:29:24;22.40;;;8.77;;
75584;SDS011;64162;53.508;10.476;2022-10-16T00:31:49;23.00;;;8.03;;
75584;SDS011;64162;53.508;10.476;2022-10-16T00:34:14;26.77;;;8.93;;
75584;SDS011;64162;53.508;10.476;2022-10-16T00:36:40;24.40;;;7.67;;
75584;SDS011;64162;53.508;10.476;2022-10-16T00:39:05;23.23;;;7.47;;
75584;SDS011;64162;53.508;10.476;2022-10-16T00:41:30;19.03;;;7.63;;
75584;SDS011;64162;53.508;10.476;2022-10-16T00:43:57;17.63;;;7.63;;
75584;SDS011;64162;53.508;10.476;2022-10-16T00:46:26;25.38;;;7.88;;
75584;SDS011;64162;53.508;10.476;2022-10-16T00:49:06;22.08;;;7.43;;
75584;SDS011;64162;53.508;10.476;2022-10-16T00:51:37;23.35;;;7.68;;
75584;SDS011;64162;53.508;10.476;2022-10-16T00:54:04;20.45;;;7.00;;
75584;SDS011;64162;53.508;10.476;2022-10-16T00:56:29;19.67;;;8.18;;
75584;SDS011;64162;53.508;10.476;2022-10-16T00:58:55;27.58;;;8.13;;
75584;SDS011;64162;53.508;10.476;2022-10-16T01:01:20;26.02;;;7.10;;
75584;SDS011;64162;53.508;10.476;2022-10-16T01:03:45;23.23;;;8.13;;
75584;SDS011;64162;53.508;10.476;2022-10-16T01:06:15;22.37;;;8.70;;
75584;SDS011;64162;53.508;10.476;2022-10-16T01:09:05;22.30;;;7.65;;
75584;SDS011;64162;53.508;10.476;2022-10-16T01:11:33;23.15;;;7.85;;
75584;SDS011;64162;53.508;10.476;2022-10-16T01:14:02;26.60;;;7.78;;
75584;SDS011;64162;53.508;10.476;2022-10-16T01:16:34;24.20;;;8.50;;
75584;SDS011;64162;53.508;10.476;2022-10-16T01:19:08;21.30;;;7.57;;
75584;SDS011;64162;53.508;10.476;2022-10-16T01:21:36;21.65;;;6.90;;
75584;SDS011;64162;53.508;10.476;2022-10-16T01:29:15;23.98;;;8.95;;
75584;SDS011;64162;53.508;10.476;2022-10-16T01:31:41;28.80;;;9.23;;
75584;SDS011;64162;53.508;10.476;2022-10-16T01:34:20;29.35;;;9.57;;
75584;SDS011;64162;53.508;10.476;2022-10-16T01:36:51;26.20;;;8.48;;
75584;SDS011;64162;53.508;10.476;2022-10-16T01:39:19;24.40;;;7.93;;
75584;SDS011;64162;53.508;10.476;2022-10-16T01:41:47;18.45;;;7.07;;
75584;SDS011;64162;53.508;10.476;2022-10-16T01:44:14;16.75;;;5.82;;
75584;SDS011;64162;53.508;10.476;2022-10-16T01:46:42;25.42;;;7.30;;
75584;SDS011;64162;53.508;10.476;2022-10-16T01:49:08;18.40;;;6.43;;
75584;SDS011;64162;53.508;10.476;2022-10-16T01:51:34;15.52;;;5.28;;
75584;SDS011;64162;53.508;10.476;2022-10-16T01:54:00;16.52;;;5.55;;
75584;SDS011;64162;53.508;10.476;2022-10-16T01:56:26;11.80;;;4.13;;
75584;SDS011;64162;53.508;10.476;2022-10-16T01:58:57;15.32;;;5.32;;
75584;SDS011;64162;53.508;10.476;2022-10-16T02:01:25;12.63;;;5.18;;
75584;SDS011;64162;53.508;10.476;2022-10-16T02:03:52;9.65;;;3.25;;
75584;SDS011;64162;53.508;10.476;2022-10-16T02:06:18;11.75;;;4.95;;
75584;SDS011;64162;53.508;10.476;2022-10-16T02:08:43;11.63;;;4.25;;
75584;SDS011;64162;53.508;10.476;2022-10-16T02:11:09;8.50;;;3.33;;
75584;SDS011;64162;53.508;10.476;2022-10-16T02:13:45;8.80;;;2.10;;
75584;SDS011;64162;53.508;10.476;2022-10-16T02:16:12;10.63;;;4.20;;
75584;SDS011;64162;53.508;10.476;2022-10-16T02:18:38;11.95;;;4.15;;
75584;SDS011;64162;53.508;10.476;2022-10-16T02:21:10;9.35;;;4.55;;
75584;SDS011;64162;53.508;10.476;2022-10-16T02:23:40;8.88;;;3.40;;
75584;SDS011;64162;53.508;10.476;2022-10-16T02:26:07;8.75;;;2.97;;
75584;SDS011;64162;53.508;10.476;2022-10-16T02:28:47;8.43;;;2.92;;
75584;SDS011;64162;53.508;10.476;2022-10-16T02:31:14;6.45;;;2.08;;
75584;SDS011;64162;53.508;10.476;2022-10-16T02:33:41;5.22;;;2.05;;
75584;SDS011;64162;53.508;10.476;2022-10-16T02:36:07;6.20;;;1.63;;
75584;SDS011;64162;53.508;10.476;2022-10-16T02:38:33;6.43;;;3.38;;
75584;SDS011;64162;53.508;10.476;2022-10-16T02:40:59;6.78;;;1.55;;
75584;SDS011;64162;53.508;10.476;2022-10-16T02:43:24;5.97;;;2.45;;
75584;SDS011;64162;53.508;10.476;2022-10-16T02:45:49;4.20;;;1.52;;
75584;SDS011;64162;53.508;10.476;2022-10-16T02:48:15;3.67;;;1.93;;
75584;SDS011;64162;53.508;10.476;2022-10-16T02:50:40;4.30;;;1.80;;
75584;SDS011;64162;53.508;10.476;2022-10-16T02:53:05;9.10;;;1.27;;
75584;SDS011;64162;53.508;10.476;2022-10-16T02:55:30;4.80;;;1.10;;
75584;SDS011;64162;53.508;10.476;2022-10-16T02:57:56;6.65;;;3.00;;
75584;SDS011;64162;53.508;10.476;2022-10-16T03:00:21;5.70;;;2.45;;
75584;SDS011;64162;53.508;10.476;2022-10-16T03:02:46;3.37;;;1.33;;
75584;SDS011;64162;53.508;10.476;2022-10-16T03:05:12;4.75;;;1.90;;
75584;SDS011;64162;53.508;10.476;2022-10-16T03:07:37;2.03;;;0.88;;
75584;SDS011;64162;53.508;10.476;2022-10-16T03:10:03;4.87;;;2.17;;
75584;SDS011;64162;53.508;10.476;2022-10-16T03:12:28;4.82;;;1.88;;
75584;SDS011;64162;53.508;10.476;2022-10-16T03:14:54;4.00;;;0.82;;
75584;SDS011;64162;53.508;10.476;2022-10-16T03:17:19;6.00;;;2.40;;
75584;SDS011;64162;53.508;10.476;2022-10-16T03:19:44;3.73;;;2.03;;
75584;SDS011;64162;53.508;10.476;2022-10-16T03:22:10;6.63;;;1.30;;
75584;SDS011;64162;53.508;10.476;2022-10-16T03:24:35;7.10;;;2.10;;
75584;SDS011;64162;53.508;10.476;2022-10-16T03:27:00;4.43;;;1.50;;
75584;SDS011;64162;53.508;10.476;2022-10-16T03:29:26;4.28;;;1.63;;
75584;SDS011;64162;53.508;10.476;2022-10-16T03:31:52;3.70;;;0.60;;
75584;SDS011;64162;53.508;10.476;2022-10-16T03:34:18;3.17;;;0.93;;
75584;SDS011;64162;53.508;10.476;2022-10-16T03:36:43;2.87;;;1.47;;
75584;SDS011;64162;53.508;10.476;2022-10-16T03:39:08;5.30;;;1.13;;
75584;SDS011;64162;53.508;10.476;2022-10-16T03:41:33;8.32;;;0.82;;
75584;SDS011;64162;53.508;10.476;2022-10-16T03:43:59;7.87;;;1.17;;
75584;SDS011;64162;53.508;10.476;2022-10-16T03:46:24;7.70;;;0.90;;
75584;SDS011;64162;53.508;10.476;2022-10-16T03:48:49;4.25;;;1.48;;
75584;SDS011;64162;53.508;10.476;2022-10-16T03:51:14;4.93;;;0.83;;
75584;SDS011;64162;53.508;10.476;2022-10-16T03:53:40;6.17;;;0.40;;
75584;SDS011;64162;53.508;10.476;2022-10-16T03:56:05;4.57;;;0.73;;
75584;SDS011;64162;53.508;10.476;2022-10-16T03:58:30;6.40;;;1.67;;
75584;SDS011;64162;53.508;10.476;2022-10-16T04:00:55;6.20;;;1.43;;
75584;SDS011;64162;53.508;10.476;2022-10-16T04:03:21;5.77;;;0.90;;
75584;SDS011;64162;53.508;10.476;2022-10-16T04:05:46;6.63;;;1.15;;
75584;SDS011;64162;53.508;10.476;2022-10-16T04:08:11;6.55;;;0.80;;
75584;SDS011;64162;53.508;10.476;2022-10-16T04:10:37;3.83;;;2.53;;
75584;SDS011;64162;53.508;10.476;2022-10-16T04:13:02;5.40;;;2.43;;
75584;SDS011;64162;53.508;10.476;2022-10-16T04:15:27;3.20;;;0.93;;
75584;SDS011;64162;53.508;10.476;2022-10-16T04:17:52;7.13;;;2.58;;
75584;SDS011;64162;53.508;10.476;2022-10-16T04:20:18;5.10;;;2.30;;
75584;SDS011;64162;53.508;10.476;2022-10-16T04:22:43;4.07;;;0.47;;
75584;SDS011;64162;53.508;10.476;2022-10-16T04:25:08;5.78;;;2.13;;
75584;SDS011;64162;53.508;10.476;2022-10-16T04:27:34;3.60;;;0.70;;
75584;SDS011;64162;53.508;10.476;2022-10-16T04:29:59;5.20;;;2.25;;
75584;SDS011;64162;53.508;10.476;2022-10-16T04:32:25;6.03;;;1.55;;
75584;SDS011;64162;53.508;10.476;2022-10-16T04:34:50;6.40;;;1.58;;
75584;SDS011;64162;53.508;10.476;2022-10-16T04:37:15;7.30;;;0.93;;
75584;SDS011;64162;53.508;10.476;2022-10-16T04:39:40;10.50;;;3.40;;
75584;SDS011;64162;53.508;10.476;2022-10-16T04:42:06;7.20;;;0.70;;
75584;SDS011;64162;53.508;10.476;2022-10-16T04:44:31;3.80;;;0.93;;
75584;SDS011;64162;53.508;10.476;2022-10-16T04:46:56;5.33;;;1.43;;
75584;SDS011;64162;53.508;10.476;2022-10-16T04:49:21;5.97;;;0.50;;
75584;SDS011;64162;53.508;10.476;2022-10-16T04:51:46;3.47;;;0.90;;
75584;SDS011;64162;53.508;10.476;2022-10-16T04:54:12;5.50;;;2.72;;
75584;SDS011;64162;53.508;10.476;2022-10-16T04:56:37;4.68;;;0.70;;
75584;SDS011;64162;53.508;10.476;2022-10-16T04:59:11;8.38;;;1.73;;
75584;SDS011;64162;53.508;10.476;2022-10-16T05:01:36;5.40;;;2.27;;
75584;SDS011;64162;53.508;10.476;2022-10-16T05:04:01;7.30;;;1.07;;
75584;SDS011;64162;53.508;10.476;2022-10-16T05:06:26;10.00;;;1.90;;
75584;SDS011;64162;53.508;10.476;2022-10-16T05:08:51;11.53;;;1.07;;
75584;SDS011;64162;53.508;10.476;2022-10-16T05:11:17;5.50;;;2.15;;
75584;SDS011;64162;53.508;10.476;2022-10-16T05:13:42;6.83;;;2.00;;
75584;SDS011;64162;53.508;10.476;2022-10-16T05:16:07;5.40;;;1.03;;
75584;SDS011;64162;53.508;10.476;2022-10-16T05:18:32;8.88;;;2.50;;
75584;SDS011;64162;53.508;10.476;2022-10-16T05:20:58;7.07;;;2.47;;
75584;SDS011;64162;53.508;10.476;2022-10-16T05:23:23;7.33;;;1.10;;
75584;SDS011;64162;53.508;10.476;2022-10-16T05:25:52;8.00;;;1.73;;
75584;SDS011;64162;53.508;10.476;2022-10-16T05:28:17;5.90;;;2.45;;
75584;SDS011;64162;53.508;10.476;2022-10-16T05:30:42;11.33;;;2.20;;
75584;SDS011;64162;53.508;10.476;2022-10-16T05:33:08;8.67;;;2.30;;
75584;SDS011;64162;53.508;10.476;2022-10-16T05:35:33;11.43;;;1.20;;
75584;SDS011;64162;53.508;10.476;2022-10-16T05:37:58;10.68;;;2.00;;
75584;SDS011;64162;53.508;10.476;2022-10-16T05:40:24;7.68;;;1.38;;
75584;SDS011;64162;53.508;10.476;2022-10-16T05:42:49;15.53;;;3.03;;
75584;SDS011;64162;53.508;10.476;2022-10-16T05:45:14;7.17;;;1.87;;
75584;SDS011;64162;53.508;10.476;2022-10-16T05:47:39;8.82;;;1.98;;
75584;SDS011;64162;53.508;10.476;2022-10-16T05:50:05;11.18;;;1.70;;
75584;SDS011;64162;53.508;10.476;2022-10-16T05:52:30;8.23;;;2.90;;
75584;SDS011;64162;53.508;10.476;2022-10-16T05:54:56;9.80;;;3.00;;
75584;SDS011;64162;53.508;10.476;2022-10-16T05:57:21;10.15;;;1.80;;
75584;SDS011;64162;53.508;10.476;2022-10-16T05:59:46;10.27;;;2.10;;
75584;SDS011;64162;53.508;10.476;2022-10-16T06:02:12;6.72;;;2.28;;
75584;SDS011;64162;53.508;10.476;2022-10-16T06:04:38;8.23;;;1.65;;
75584;SDS011;64162;53.508;10.476;2022-10-16T06:07:03;6.67;;;1.50;;
75584;SDS011;64162;53.508;10.476;2022-10-16T06:09:28;7.18;;;2.17;;
75584;SDS011;64162;53.508;10.476;2022-10-16T06:11:53;7.80;;;2.37;;
75584;SDS011;64162;53.508;10.476;2022-10-16T06:14:19;6.53;;;1.38;;
75584;SDS011;64162;53.508;10.476;2022-10-16T06:16:44;9.13;;;3.00;;
75584;SDS011;64162;53.508;10.476;2022-10-16T06:19:09;10.97;;;2.80;;
75584;SDS011;64162;53.508;10.476;2022-10-16T06:21:34;8.27;;;2.42;;
75584;SDS011;64162;53.508;10.476;2022-10-16T06:24:00;9.98;;;3.35;;
75584;SDS011;64162;53.508;10.476;2022-10-16T06:26:26;10.45;;;2.35;;
75584;SDS011;64162;53.508;10.476;2022-10-16T06:28:53;8.65;;;3.22;;
75584;SDS011;64162;53.508;10.476;2022-10-16T06:31:18;7.00;;;2.53;;
75584;SDS011;64162;53.508;10.476;2022-10-16T06:36:19;10.05;;;2.65;;
75584;SDS011;64162;53.508;10.476;2022-10-16T06:38:45;11.05;;;3.22;;
75584;SDS011;64162;53.508;10.476;2022-10-16T06:41:14;14.50;;;3.27;;
75584;SDS011;64162;53.508;10.476;2022-10-16T06:43:40;8.75;;;3.30;;
75584;SDS011;64162;53.508;10.476;2022-10-16T06:46:05;10.13;;;3.05;;
75584;SDS011;64162;53.508;10.476;2022-10-16T06:48:33;12.98;;;2.70;;
75584;SDS011;64162;53.508;10.476;2022-10-16T06:50:59;9.02;;;2.60;;
75584;SDS011;64162;53.508;10.476;2022-10-16T06:53:25;10.68;;;3.17;;
75584;SDS011;64162;53.508;10.476;2022-10-16T06:55:50;14.18;;;4.13;;
75584;SDS011;64162;53.508;10.476;2022-10-16T06:58:16;13.13;;;3.63;;
75584;SDS011;64162;53.508;10.476;2022-10-16T07:00:41;11.52;;;3.72;;
75584;SDS011;64162;53.508;10.476;2022-10-16T07:03:06;9.50;;;2.70;;
75584;SDS011;64162;53.508;10.476;2022-10-16T07:05:31;15.03;;;3.97;;
75584;SDS011;64162;53.508;10.476;2022-10-16T07:07:57;8.37;;;2.63;;
75584;SDS011;64162;53.508;10.476;2022-10-16T07:10:22;8.17;;;2.93;;
75584;SDS011;64162;53.508;10.476;2022-10-16T07:12:50;10.80;;;3.13;;
75584;SDS011;64162;53.508;10.476;2022-10-16T07:15:15;11.27;;;3.70;;
75584;SDS011;64162;53.508;10.476;2022-10-16T07:17:40;11.23;;;3.63;;
75584;SDS011;64162;53.508;10.476;2022-10-16T07:20:06;9.53;;;3.97;;
75584;SDS011;64162;53.508;10.476;2022-10-16T07:22:31;9.50;;;4.22;;
75584;SDS011;64162;53.508;10.476;2022-10-16T07:24:56;9.68;;;2.80;;
75584;SDS011;64162;53.508;10.476;2022-10-16T07:27:22;10.43;;;3.75;;
75584;SDS011;64162;53.508;10.476;2022-10-16T07:29:49;7.05;;;3.83;;
75584;SDS011;64162;53.508;10.476;2022-10-16T07:32:14;8.20;;;4.75;;
75584;SDS011;64162;53.508;10.476;2022-10-16T07:34:39;8.87;;;2.67;;
75584;SDS011;64162;53.508;10.476;2022-10-16T07:37:04;8.85;;;3.85;;
75584;SDS011;64162;53.508;10.476;2022-10-16T07:39:29;7.27;;;2.87;;
75584;SDS011;64162;53.508;10.476;2022-10-16T07:41:55;8.93;;;4.82;;
75584;SDS011;64162;53.508;10.476;2022-10-16T07:44:20;6.97;;;4.13;;
75584;SDS011;64162;53.508;10.476;2022-10-16T07:46:45;4.80;;;2.20;;
75584;SDS011;64162;53.508;10.476;2022-10-16T07:49:11;6.00;;;2.88;;
75584;SDS011;64162;53.508;10.476;2022-10-16T07:51:36;5.60;;;1.80;;
75584;SDS011;64162;53.508;10.476;2022-10-16T07:54:03;6.68;;;2.60;;
75584;SDS011;64162;53.508;10.476;2022-10-16T07:56:30;9.10;;;2.65;;
75584;SDS011;64162;53.508;10.476;2022-10-16T07:58:55;6.28;;;2.60;;
75584;SDS011;64162;53.508;10.476;2022-10-16T08:01:21;4.07;;;1.67;;
75584;SDS011;64162;53.508;10.476;2022-10-16T08:03:50;4.50;;;3.60;;
75584;SDS011;64162;53.508;10.476;2022-10-16T08:06:16;5.53;;;2.20;;
75584;SDS011;64162;53.508;10.476;2022-10-16T08:08:41;3.67;;;3.00;;
75584;SDS011;64162;53.508;10.476;2022-10-16T08:11:06;4.30;;;3.00;;
75584;SDS011;64162;53.508;10.476;2022-10-16T08:13:32;6.03;;;1.50;;
75584;SDS011;64162;53.508;10.476;2022-10-16T08:15:57;4.25;;;3.03;;
75584;SDS011;64162;53.508;10.476;2022-10-16T08:18:22;5.40;;;2.38;;
75584;SDS011;64162;53.508;10.476;2022-10-16T08:20:47;6.78;;;1.67;;
75584;SDS011;64162;53.508;10.476;2022-10-16T08:23:13;3.57;;;2.53;;
75584;SDS011;64162;53.508;10.476;2022-10-16T08:25:38;2.17;;;1.85;;
75584;SDS011;64162;53.508;10.476;2022-10-16T08:28:04;5.03;;;1.70;;
75584;SDS011;64162;53.508;10.476;2022-10-16T08:30:31;2.60;;;1.75;;
75584;SDS011;64162;53.508;10.476;2022-10-16T08:32:57;2.75;;;1.63;;
75584;SDS011;64162;53.508;10.476;2022-10-16T08:35:23;3.03;;;1.83;;
75584;SDS011;64162;53.508;10.476;2022-10-16T08:37:48;1.67;;;1.03;;
75584;SDS011;64162;53.508;10.476;2022-10-16T08:40:16;2.23;;;1.53;;
75584;SDS011;64162;53.508;10.476;2022-10-16T08:50:23;3.53;;;0.65;;
75584;SDS011;64162;53.508;10.476;2022-10-16T08:52:50;2.83;;;1.33;;
75584;SDS011;64162;53.508;10.476;2022-10-16T08:57:59;2.95;;;1.60;;
75584;SDS011;64162;53.508;10.476;2022-10-16T09:00:25;3.55;;;1.90;;
75584;SDS011;64162;53.508;10.476;2022-10-16T09:15:50;3.80;;;0.55;;
75584;SDS011;64162;53.508;10.476;2022-10-16T09:18:29;2.05;;;1.23;;
75584;SDS011;64162;53.508;10.476;2022-10-16T09:23:29;3.33;;;0.75;;
75584;SDS011;64162;53.508;10.476;2022-10-16T09:25:55;1.92;;;1.83;;
75584;SDS011;64162;53.508;10.476;2022-10-16T09:28:21;1.35;;;1.25;;
75584;SDS011;64162;53.508;10.476;2022-10-16T09:30:46;1.88;;;0.98;;
75584;SDS011;64162;53.508;10.476;2022-10-16T09:33:13;3.65;;;1.85;;
75584;SDS011;64162;53.508;10.476;2022-10-16T09:35:43;3.38;;;1.15;;
75584;SDS011;64162;53.508;10.476;2022-10-16T09:38:09;1.65;;;0.85;;
75584;SDS011;64162;53.508;10.476;2022-10-16T09:40:45;2.95;;;1.63;;
75584;SDS011;64162;53.508;10.476;2022-10-16T09:45:38;3.45;;;1.38;;
75584;SDS011;64162;53.508;10.476;2022-10-16T09:48:10;1.63;;;1.13;;
75584;SDS011;64162;53.508;10.476;2022-10-16T09:50:36;4.47;;;2.38;;
75584;SDS011;64162;53.508;10.476;2022-10-16T09:53:11;3.70;;;0.45;;
75584;SDS011;64162;53.508;10.476;2022-10-16T09:55:47;1.63;;;0.70;;
75584;SDS011;64162;53.508;10.476;2022-10-16T09:58:13;1.83;;;1.73;;
75584;SDS011;64162;53.508;10.476;2022-10-16T10:00:39;1.35;;;0.65;;
75584;SDS011;64162;53.508;10.476;2022-10-16T10:03:09;2.15;;;1.27;;
75584;SDS011;64162;53.508;10.476;2022-10-16T10:05:34;1.83;;;1.73;;
75584;SDS011;64162;53.508;10.476;2022-10-16T10:08:00;3.67;;;1.53;;
75584;SDS011;64162;53.508;10.476;2022-10-16T10:10:32;2.88;;;0.95;;
75584;SDS011;64162;53.508;10.476;2022-10-16T10:12:57;2.78;;;1.02;;
75584;SDS011;64162;53.508;10.476;2022-10-16T10:15:23;2.63;;;1.20;;
75584;SDS011;64162;53.508;10.476;2022-10-16T10:17:50;0.82;;;0.13;;
75584;SDS011;64162;53.508;10.476;2022-10-16T10:22:51;0.73;;;0.32;;
75584;SDS011;64162;53.508;10.476;2022-10-16T10:30:37;2.25;;;1.08;;
75584;SDS011;64162;53.508;10.476;2022-10-16T10:35:38;1.50;;;1.27;;
75584;SDS011;64162;53.508;10.476;2022-10-16T10:40:54;1.27;;;0.40;;
75584;SDS011;64162;53.508;10.476;2022-10-16T10:45:54;1.05;;;0.30;;
75584;SDS011;64162;53.508;10.476;2022-10-16T10:51:10;2.60;;;1.27;;
75584;SDS011;64162;53.508;10.476;2022-10-16T11:01:30;3.42;;;3.13;;
75584;SDS011;64162;53.508;10.476;2022-10-16T11:06:55;1.17;;;0.73;;
75584;SDS011;64162;53.508;10.476;2022-10-16T11:09:24;1.70;;;1.30;;
75584;SDS011;64162;53.508;10.476;2022-10-16T11:11:58;4.00;;;1.40;;
75584;SDS011;64162;53.508;10.476;2022-10-16T11:14:29;3.25;;;0.28;;
75584;SDS011;64162;53.508;10.476;2022-10-16T11:17:04;2.33;;;0.65;;
75584;SDS011;64162;53.508;10.476;2022-10-16T11:19:35;3.83;;;0.65;;
75584;SDS011;64162;53.508;10.476;2022-10-16T11:24:44;2.05;;;0.75;;
75584;SDS011;64162;53.508;10.476;2022-10-16T11:27:12;1.63;;;1.40;;
75584;SDS011;64162;53.508;10.476;2022-10-16T11:29:43;1.38;;;1.23;;
75584;SDS011;64162;53.508;10.476;2022-10-16T11:32:20;2.72;;;1.55;;
75584;SDS011;64162;53.508;10.476;2022-10-16T11:34:48;1.25;;;1.23;;
75584;SDS011;64162;53.508;10.476;2022-10-16T11:37:17;2.65;;;1.30;;
75584;SDS011;64162;53.508;10.476;2022-10-16T11:39:44;0.88;;;0.65;;
75584;SDS011;64162;53.508;10.476;2022-10-16T11:42:19;0.70;;;0.10;;
75584;SDS011;64162;53.508;10.476;2022-10-16T11:49:57;1.77;;;0.87;;
75584;SDS011;64162;53.508;10.476;2022-10-16T11:52:25;1.13;;;0.85;;
75584;SDS011;64162;53.508;10.476;2022-10-16T11:55:04;1.15;;;0.80;;
75584;SDS011;64162;53.508;10.476;2022-10-16T11:57:32;2.33;;;1.75;;
75584;SDS011;64162;53.508;10.476;2022-10-16T12:00:00;1.27;;;0.30;;
75584;SDS011;64162;53.508;10.476;2022-10-16T12:05:22;1.65;;;0.35;;
75584;SDS011;64162;53.508;10.476;2022-10-16T12:07:57;1.88;;;1.20;;
75584;SDS011;64162;53.508;10.476;2022-10-16T12:10:27;1.65;;;0.80;;
75584;SDS011;64162;53.508;10.476;2022-10-16T12:12:53;1.05;;;0.32;;
75584;SDS011;64162;53.508;10.476;2022-10-16T12:15:26;0.98;;;0.52;;
75584;SDS011;64162;53.508;10.476;2022-10-16T12:17:52;3.13;;;0.75;;
75584;SDS011;64162;53.508;10.476;2022-10-16T12:20:19;3.08;;;1.83;;
75584;SDS011;64162;53.508;10.476;2022-10-16T12:25:40;3.67;;;1.63;;
75584;SDS011;64162;53.508;10.476;2022-10-16T12:28:18;1.83;;;0.20;;
75584;SDS011;64162;53.508;10.476;2022-10-16T12:30:51;1.15;;;0.10;;
75584;SDS011;64162;53.508;10.476;2022-10-16T12:33:24;1.58;;;1.23;;
75584;SDS011;64162;53.508;10.476;2022-10-16T12:35:50;1.33;;;0.43;;
75584;SDS011;64162;53.508;10.476;2022-10-16T12:38:17;1.52;;;1.00;;
75584;SDS011;64162;53.508;10.476;2022-10-16T12:40:43;1.42;;;0.65;;
75584;SDS011;64162;53.508;10.476;2022-10-16T12:43:13;3.20;;;0.55;;
75584;SDS011;64162;53.508;10.476;2022-10-16T12:45:48;2.05;;;0.50;;
75584;SDS011;64162;53.508;10.476;2022-10-16T12:48:23;2.50;;;0.30;;
75584;SDS011;64162;53.508;10.476;2022-10-16T12:50:48;1.80;;;0.50;;
75584;SDS011;64162;53.508;10.476;2022-10-16T12:53:24;9.00;;;0.77;;
75584;SDS011;64162;53.508;10.476;2022-10-16T13:01:24;3.70;;;1.15;;
75584;SDS011;64162;53.508;10.476;2022-10-16T13:22:29;3.70;;;0.52;;
75584;SDS011;64162;53.508;10.476;2022-10-16T13:25:00;2.10;;;0.77;;
75584;SDS011;64162;53.508;10.476;2022-10-16T13:32:38;1.35;;;0.32;;
75584;SDS011;64162;53.508;10.476;2022-10-16T13:35:15;2.58;;;0.65;;
75584;SDS011;64162;53.508;10.476;2022-10-16T13:37:42;1.58;;;0.57;;
75584;SDS011;64162;53.508;10.476;2022-10-16T13:40:23;3.90;;;1.53;;
75584;SDS011;64162;53.508;10.476;2022-10-16T13:42:50;2.95;;;0.20;;
75584;SDS011;64162;53.508;10.476;2022-10-16T13:45:19;1.08;;;0.52;;
75584;SDS011;64162;53.508;10.476;2022-10-16T13:47:45;5.68;;;2.55;;
75584;SDS011;64162;53.508;10.476;2022-10-16T13:50:14;5.13;;;0.60;;
75584;SDS011;64162;53.508;10.476;2022-10-16T13:52:40;4.15;;;0.40;;
75584;SDS011;64162;53.508;10.476;2022-10-16T13:55:13;3.25;;;1.45;;
75584;SDS011;64162;53.508;10.476;2022-10-16T13:57:38;2.90;;;0.20;;
75584;SDS011;64162;53.508;10.476;2022-10-16T14:00:16;4.07;;;1.55;;
75584;SDS011;64162;53.508;10.476;2022-10-16T14:02:42;2.10;;;1.23;;
75584;SDS011;64162;53.508;10.476;2022-10-16T14:05:08;2.88;;;1.42;;
75584;SDS011;64162;53.508;10.476;2022-10-16T14:07:35;1.65;;;0.57;;
75584;SDS011;64162;53.508;10.476;2022-10-16T14:10:02;2.28;;;1.23;;
75584;SDS011;64162;53.508;10.476;2022-10-16T14:12:28;2.42;;;1.10;;
75584;SDS011;64162;53.508;10.476;2022-10-16T14:14:53;2.97;;;1.45;;
75584;SDS011;64162;53.508;10.476;2022-10-16T14:17:20;3.90;;;1.17;;
75584;SDS011;64162;53.508;10.476;2022-10-16T14:19:51;1.65;;;0.85;;
75584;SDS011;64162;53.508;10.476;2022-10-16T14:22:34;2.65;;;1.30;;
75584;SDS011;64162;53.508;10.476;2022-10-16T14:24:59;4.25;;;1.05;;
75584;SDS011;64162;53.508;10.476;2022-10-16T14:27:27;2.70;;;1.20;;
75584;SDS011;64162;53.508;10.476;2022-10-16T14:33:04;3.15;;;1.48;;
75584;SDS011;64162;53.508;10.476;2022-10-16T14:37:55;1.20;;;0.10;;
75584;SDS011;64162;53.508;10.476;2022-10-16T14:40:25;1.02;;;0.10;;
75584;SDS011;64162;53.508;10.476;2022-10-16T14:42:51;2.28;;;0.98;;
75584;SDS011;64162;53.508;10.476;2022-10-16T14:45:20;1.88;;;0.47;;
75584;SDS011;64162;53.508;10.476;2022-10-16T14:47:50;2.42;;;0.40;;
75584;SDS011;64162;53.508;10.476;2022-10-16T14:50:15;3.40;;;0.20;;
75584;SDS011;64162;53.508;10.476;2022-10-16T14:52:42;1.10;;;0.57;;
75584;SDS011;64162;53.508;10.476;2022-10-16T14:55:08;4.85;;;0.73;;
75584;SDS011;64162;53.508;10.476;2022-10-16T14:57:34;1.45;;;0.73;;
75584;SDS011;64162;53.508;10.476;2022-10-16T15:00:01;2.85;;;1.08;;
75584;SDS011;64162;53.508;10.476;2022-10-16T15:02:27;6.85;;;1.48;;
75584;SDS011;64162;53.508;10.476;2022-10-16T15:04:53;2.92;;;0.63;;
75584;SDS011;64162;53.508;10.476;2022-10-16T15:07:19;3.10;;;0.60;;
75584;SDS011;64162;53.508;10.476;2022-10-16T15:09:44;14.27;;;1.95;;
75584;SDS011;64162;53.508;10.476;2022-10-16T15:12:09;3.67;;;1.40;;
75584;SDS011;64162;53.508;10.476;2022-10-16T15:14:34;2.97;;;1.23;;
75584;SDS011;64162;53.508;10.476;2022-10-16T15:17:00;2.10;;;0.60;;
75584;SDS011;64162;53.508;10.476;2022-10-16T15:19:25;3.03;;;1.45;;
75584;SDS011;64162;53.508;10.476;2022-10-16T15:21:50;2.17;;;0.60;;
75584;SDS011;64162;53.508;10.476;2022-10-16T15:24:16;2.60;;;1.80;;
75584;SDS011;64162;53.508;10.476;2022-10-16T15:26:41;2.40;;;1.20;;
75584;SDS011;64162;53.508;10.476;2022-10-16T15:29:07;2.88;;;0.65;;
75584;SDS011;64162;53.508;10.476;2022-10-16T15:31:32;2.10;;;1.05;;
75584;SDS011;64162;53.508;10.476;2022-10-16T15:33:58;1.92;;;0.52;;
75584;SDS011;64162;53.508;10.476;2022-10-16T15:36:28;3.08;;;0.57;;
75584;SDS011;64162;53.508;10.476;2022-10-16T15:38:54;3.20;;;1.52;;
75584;SDS011;64162;53.508;10.476;2022-10-16T15:41:19;3.13;;;1.00;;
75584;SDS011;64162;53.508;10.476;2022-10-16T15:43:45;2.28;;;0.68;;
75584;SDS011;64162;53.508;10.476;2022-10-16T15:46:13;5.03;;;0.55;;
75584;SDS011;64162;53.508;10.476;2022-10-16T15:48:39;4.32;;;0.80;;
75584;SDS011;64162;53.508;10.476;2022-10-16T15:51:05;5.30;;;0.87;;
75584;SDS011;64162;53.508;10.476;2022-10-16T15:53:30;3.17;;;1.20;;
75584;SDS011;64162;53.508;10.476;2022-10-16T15:55:55;3.63;;;1.58;;
75584;SDS011;64162;53.508;10.476;2022-10-16T15:58:21;4.90;;;0.97;;
75584;SDS011;64162;53.508;10.476;2022-10-16T16:00:57;1.63;;;0.85;;
75584;SDS011;64162;53.508;10.476;2022-10-16T16:03:22;7.35;;;0.45;;
75584;SDS011;64162;53.508;10.476;2022-10-16T16:05:48;2.45;;;0.47;;
75584;SDS011;64162;53.508;10.476;2022-10-16T16:08:13;3.60;;;0.93;;
75584;SDS011;64162;53.508;10.476;2022-10-16T16:10:38;5.00;;;1.07;;
75584;SDS011;64162;53.508;10.476;2022-10-16T16:13:03;3.87;;;0.60;;
75584;SDS011;64162;53.508;10.476;2022-10-16T16:15:28;1.87;;;1.27;;
75584;SDS011;64162;53.508;10.476;2022-10-16T16:17:54;5.60;;;0.93;;
75584;SDS011;64162;53.508;10.476;2022-10-16T16:20:19;6.53;;;1.60;;
75584;SDS011;64162;53.508;10.476;2022-10-16T16:22:44;4.10;;;0.27;;